Time;durP1;ratioP1;P1;durP2;ratioP2;P2;SDS_P1;SDS_P2;PMS_P1;PMS_P2;Temp;Humidity;BMP_temperature;BMP_pressure;BME280_temperature;BME280_humidity;BME280_pressure;Samples;Min_cycle;Max_cycle;Signal;HPM_P1;HPM_P2
2021/08/19 00:01:36;;;;;;;3.17;1.80;;;;;;;17.39;78.20;99891.58;2852284;83;21086;-71
2021/08/19 00:05:38;;;;;;;2.70;1.95;;;;;;;17.40;77.84;99881.14;2852948;82;21066;-71
2021/08/19 00:09:40;;;;;;;3.60;1.55;;;;;;;17.35;77.91;99884.89;2852303;83;21039;-71
2021/08/19 00:13:41;;;;;;;2.35;1.45;;;;;;;17.33;77.96;99884.24;2852743;83;21090;-72
2021/08/19 00:17:43;;;;;;;2.27;2.08;;;;;;;17.37;77.79;99878.83;2853341;83;20992;-71
2021/08/19 00:21:46;;;;;;;3.02;1.20;;;;;;;17.40;77.48;99885.18;2853174;83;21066;-72
2021/08/19 00:25:47;;;;;;;3.77;1.65;;;;;;;17.41;77.17;99884.16;2853201;83;21038;-71
2021/08/19 00:29:49;;;;;;;3.92;2.10;;;;;;;17.40;77.00;99879.31;2853135;83;21022;-71
2021/08/19 00:33:52;;;;;;;2.20;1.17;;;;;;;17.35;77.09;99883.55;2853071;83;21015;-71
2021/08/19 00:37:55;;;;;;;2.12;1.65;;;;;;;17.34;77.16;99881.88;2853123;83;20972;-72
2021/08/19 00:41:57;;;;;;;4.10;2.33;;;;;;;17.32;77.01;99874.50;2853221;83;21019;-71
2021/08/19 00:45:59;;;;;;;3.05;1.65;;;;;;;17.32;76.89;99874.50;2853363;83;20987;-71
2021/08/19 00:50:02;;;;;;;2.37;1.72;;;;;;;17.27;76.91;99878.55;2852819;83;21046;-71
2021/08/19 00:54:10;;;;;;;2.62;1.98;;;;;;;17.21;76.95;99875.77;2853032;82;21165;-71
2021/08/19 00:58:13;;;;;;;1.72;1.42;;;;;;;17.19;77.17;99878.62;2852901;83;21075;-71
2021/08/19 01:02:15;;;;;;;1.70;1.37;;;;;;;17.15;77.30;99879.15;2853102;83;21016;-71
2021/08/19 01:06:17;;;;;;;2.40;1.52;;;;;;;17.11;77.52;99875.48;2852736;83;21016;-71
2021/08/19 01:10:19;;;;;;;4.17;2.22;;;;;;;17.05;78.16;99878.04;2853176;83;21027;-71
2021/08/19 01:14:21;;;;;;;3.00;2.08;;;;;;;17.03;78.97;99884.10;2853306;83;21105;-71
2021/08/19 01:18:23;;;;;;;2.52;1.70;;;;;;;17.06;79.76;99879.71;2853470;83;21006;-71
2021/08/19 01:22:25;;;;;;;2.27;2.02;;;;;;;17.10;80.31;99879.70;2853073;83;21078;-71
2021/08/19 01:26:28;;;;;;;2.22;2.02;;;;;;;17.19;80.54;99878.62;2853376;83;21063;-71
2021/08/19 01:30:30;;;;;;;1.85;1.35;;;;;;;17.34;80.59;99877.84;2853269;83;21070;-72
2021/08/19 01:34:32;;;;;;;2.67;1.75;;;;;;;17.45;80.47;99876.05;2842118;83;21074;-71
2021/08/19 01:38:35;;;;;;;3.25;2.08;;;;;;;17.53;80.30;99863.91;2840756;83;21063;-71
2021/08/19 01:42:37;;;;;;;4.05;2.35;;;;;;;17.63;80.21;99861.45;2844895;83;21028;-71
2021/08/19 01:46:39;;;;;;;2.70;2.50;;;;;;;17.70;80.05;99863.75;2812155;83;21010;-71
2021/08/19 01:50:40;;;;;;;1.80;1.70;;;;;;;17.80;80.05;99864.31;2805078;85;21019;-71
2021/08/19 01:54:42;;;;;;;1.60;1.40;;;;;;;17.87;79.80;99856.84;2805499;85;21031;-71
2021/08/19 01:58:44;;;;;;;2.00;1.80;;;;;;;17.94;79.55;99851.88;2805329;85;21043;-71
2021/08/19 02:02:45;;;;;;;5.47;1.95;;;;;;;17.99;79.40;99854.03;2805436;84;21011;-71
2021/08/19 02:19:51;;;;;;;1.37;1.27;;;;;;;18.29;78.59;99840.60;2847696;80;67002;-71
2021/08/19 02:23:53;;;;;;;2.37;1.95;;;;;;;18.30;78.77;99839.58;2848945;81;21011;-71
2021/08/19 02:27:56;;;;;;;2.12;1.45;;;;;;;18.30;78.72;99836.89;2848768;82;21811;-71
2021/08/19 02:31:57;;;;;;;2.80;2.33;;;;;;;18.35;78.88;99833.11;2848690;81;21003;-71
2021/08/19 02:35:59;;;;;;;2.12;1.77;;;;;;;18.43;78.87;99829.98;2848794;83;21082;-71
2021/08/19 02:40:01;;;;;;;5.70;2.05;;;;;;;18.44;78.62;99830.30;2848752;83;20959;-71
2021/08/19 02:44:03;;;;;;;3.25;1.77;;;;;;;18.42;78.66;99834.55;2848993;83;20987;-71
2021/08/19 02:48:05;;;;;;;2.35;1.92;;;;;;;18.37;78.98;99832.41;2848836;83;21026;-71
2021/08/19 02:52:07;;;;;;;2.22;1.98;;;;;;;18.36;79.04;99829.39;2848502;83;20994;-71
2021/08/19 02:56:09;;;;;;;1.50;1.25;;;;;;;18.36;79.04;99836.13;2841209;82;21042;-71
2021/08/19 03:00:12;;;;;;;1.62;1.17;;;;;;;18.34;79.13;99829.25;2813223;82;21002;-71
2021/08/19 03:04:14;;;;;;;1.72;1.57;;;;;;;18.35;79.32;99826.37;2819290;83;20990;-72
2021/08/19 03:08:16;;;;;;;1.95;1.35;;;;;;;18.38;79.31;99830.03;2813082;83;21094;-71
2021/08/19 03:12:18;;;;;;;3.33;2.80;;;;;;;18.43;79.37;99825.44;2800976;85;21039;-71
2021/08/19 03:16:22;;;;;;;2.65;1.90;;;;;;;18.52;79.24;99826.17;2803090;82;21026;-71
2021/08/19 03:20:25;;;;;;;1.77;1.30;;;;;;;18.59;79.11;99829.76;2849434;82;21046;-73
2021/08/19 03:24:31;;;;;;;1.77;1.62;;;;;;;18.61;78.73;99831.75;2854784;83;21085;-73
2021/08/19 03:28:33;;;;;;;1.87;1.72;;;;;;;18.61;78.74;99833.09;2861978;83;21089;-73
2021/08/19 03:32:37;;;;;;;4.20;2.30;;;;;;;18.59;78.62;99832.98;2861992;83;21018;-73
2021/08/19 03:36:39;;;;;;;2.37;2.17;;;;;;;18.52;78.91;99833.72;2850135;82;21054;-72
2021/08/19 03:40:40;;;;;;;2.95;1.98;;;;;;;18.49;79.12;99837.32;2848782;83;20990;-73
2021/08/19 03:44:42;;;;;;;2.22;1.15;;;;;;;18.48;79.32;99831.62;2848832;83;21038;-73
2021/08/19 03:48:44;;;;;;;4.87;2.45;;;;;;;18.51;79.53;99832.05;2848842;82;21054;-73
2021/08/19 03:52:45;;;;;;;1.90;1.77;;;;;;;18.55;79.67;99835.21;2848914;83;21071;-74
2021/08/19 03:56:47;;;;;;;1.62;0.95;;;;;;;18.60;79.24;99840.03;2848725;83;21110;-73
2021/08/19 04:00:50;;;;;;;42.90;9.88;;;;;;;18.60;79.27;99840.85;2849480;82;21031;-73
2021/08/19 04:04:52;;;;;;;2.90;1.82;;;;;;;18.60;79.17;99835.47;2860692;82;21007;-72
2021/08/19 04:08:54;;;;;;;2.72;1.55;;;;;;;18.60;79.40;99832.77;2849202;83;21046;-73
2021/08/19 04:12:57;;;;;;;1.80;1.70;;;;;;;18.64;79.36;99837.28;2848021;83;21023;-73
2021/08/19 04:17:01;;;;;;;2.15;1.82;;;;;;;18.64;79.44;99834.05;2856397;82;21085;-72
2021/08/19 04:21:03;;;;;;;2.05;1.52;;;;;;;18.67;79.56;99843.13;2830105;83;21026;-72
2021/08/19 04:25:06;;;;;;;3.25;1.37;;;;;;;18.71;79.41;99843.56;2852429;83;20979;-72
2021/08/19 04:29:08;;;;;;;1.60;1.50;;;;;;;18.74;79.49;99849.09;2852449;83;21049;-73
2021/08/19 04:33:10;;;;;;;2.27;2.00;;;;;;;18.78;79.36;99843.64;2859728;80;20947;-72
2021/08/19 04:37:12;;;;;;;7.78;1.40;;;;;;;18.82;79.42;99848.47;2880854;80;21030;-72
2021/08/19 04:41:13;;;;;;;1.70;1.60;;;;;;;18.86;79.45;99846.20;2858941;82;21003;-73
2021/08/19 04:45:15;;;;;;;1.98;1.20;;;;;;;18.89;79.42;99839.61;2860236;81;21027;-72
2021/08/19 04:49:17;;;;;;;3.50;1.85;;;;;;;18.94;79.63;99844.75;2902603;82;21011;-72
2021/08/19 04:53:19;;;;;;;2.00;1.67;;;;;;;19.01;79.77;99855.64;2902546;82;21228;-72
2021/08/19 04:57:21;;;;;;;3.25;1.75;;;;;;;19.08;79.52;99853.02;2902924;82;21098;-72
2021/08/19 05:01:23;;;;;;;1.98;1.67;;;;;;;19.14;79.50;99853.58;2903087;80;21011;-73
2021/08/19 05:05:25;;;;;;;1.82;1.70;;;;;;;19.20;79.90;99858.19;2903345;82;21042;-71
2021/08/19 05:09:39;;;;;;;1.75;1.15;;;;;;;19.29;79.72;99855.38;2924077;78;71669;-56
2021/08/19 05:13:41;;;;;;;3.15;1.77;;;;;;;19.37;79.56;99857.42;2949891;80;21024;-58
2021/08/19 05:17:43;;;;;;;2.27;2.08;;;;;;;19.43;79.23;99859.84;2951093;80;21032;-57
2021/08/19 05:21:55;;;;;;;2.47;1.90;;;;;;;19.49;78.64;99852.84;2951201;80;21036;-58
2021/08/19 05:25:56;;;;;;;4.87;1.90;;;;;;;19.62;77.68;99859.69;2951158;80;21010;-60
2021/08/19 05:30:10;;;;;;;3.80;2.55;;;;;;;19.75;76.79;99860.30;2951309;80;20913;-58
2021/08/19 05:34:12;;;;;;;2.35;2.15;;;;;;;19.86;76.90;99859.45;2951163;80;21031;-57
2021/08/19 05:38:14;;;;;;;3.55;2.50;;;;;;;19.97;76.04;99854.86;2950617;79;21050;-57
2021/08/19 05:42:16;;;;;;;2.58;2.37;;;;;;;20.10;76.24;99859.50;2950923;80;20964;-56
2021/08/19 05:46:20;;;;;;;2.85;1.72;;;;;;;20.19;75.58;99852.08;2951113;80;20945;-60
2021/08/19 05:50:22;;;;;;;4.50;2.58;;;;;;;20.30;75.11;99858.77;2951271;80;20997;-56
2021/08/19 05:54:24;;;;;;;3.33;2.47;;;;;;;20.38;74.55;99856.73;2951147;80;21027;-56
2021/08/19 05:58:26;;;;;;;3.87;2.55;;;;;;;20.47;74.53;99856.58;2951190;80;20996;-57
2021/08/19 06:02:28;;;;;;;2.17;1.98;;;;;;;20.56;74.10;99856.70;2951090;80;21297;-57
2021/08/19 06:06:29;;;;;;;4.92;2.42;;;;;;;20.66;73.67;99864.43;2950564;80;21047;-57
2021/08/19 06:10:31;;;;;;;2.25;1.72;;;;;;;20.75;73.51;99863.73;2950169;80;20981;-58
2021/08/19 06:14:41;;;;;;;2.92;2.62;;;;;;;20.86;72.82;99859.64;2951067;80;21012;-57
2021/08/19 06:18:42;;;;;;;2.27;1.95;;;;;;;20.93;73.10;99866.73;2950610;80;20976;-57
2021/08/19 06:22:59;;;;;;;2.72;2.52;;;;;;;20.97;72.50;99861.75;2950845;80;20976;-56
2021/08/19 06:27:01;;;;;;;5.65;3.33;;;;;;;21.04;72.40;99867.18;2950943;80;21000;-58
2021/08/19 06:31:03;;;;;;;4.83;3.37;;;;;;;21.11;71.88;99860.72;2951111;80;20995;-56
2021/08/19 06:35:06;;;;;;;4.00;2.95;;;;;;;21.14;70.92;99858.66;2950747;80;20964;-57
2021/08/19 06:39:08;;;;;;;3.12;2.45;;;;;;;21.21;71.57;99865.72;2950800;80;21032;-58
2021/08/19 06:43:11;;;;;;;3.47;3.00;;;;;;;21.28;70.30;99859.50;2951007;80;20969;-57
2021/08/19 06:47:13;;;;;;;3.70;3.33;;;;;;;21.32;70.05;99868.36;2950780;80;20984;-57
2021/08/19 06:51:32;;;;;;;4.45;3.95;;;;;;;21.38;69.65;99873.44;2950936;80;20973;-57
2021/08/19 06:55:34;;;;;;;3.80;3.42;;;;;;;21.37;69.00;99859.09;2950993;80;20961;-57
2021/08/19 06:59:38;;;;;;;4.12;3.70;;;;;;;21.38;69.12;99870.73;2950705;80;21206;-57
2021/08/19 07:03:40;;;;;;;11.88;5.75;;;;;;;21.48;69.71;99856.28;2950726;80;20945;-56
2021/08/19 07:07:50;;;;;;;4.87;3.75;;;;;;;21.66;69.56;99853.50;2950924;80;20976;-57
2021/08/19 07:11:54;;;;;;;3.92;3.50;;;;;;;21.83;69.10;99854.73;2950854;80;20973;-59
2021/08/19 07:15:56;;;;;;;6.65;3.90;;;;;;;21.97;68.16;99843.85;2950822;80;21075;-58
2021/08/19 07:20:05;;;;;;;3.98;3.58;;;;;;;22.01;68.40;99850.53;2950980;80;21281;-58
2021/08/19 07:24:07;;;;;;;4.45;4.03;;;;;;;22.15;67.53;99855.89;2950701;80;21249;-57
2021/08/19 07:28:29;;;;;;;5.55;4.12;;;;;;;22.38;66.68;99854.86;2950694;80;20980;-58
2021/08/19 07:32:33;;;;;;;3.67;3.00;;;;;;;22.42;65.96;99848.50;2950440;80;20997;-58
2021/08/19 07:36:39;;;;;;;4.00;3.62;;;;;;;22.63;65.80;99853.34;2950349;80;20948;-57
2021/08/19 07:40:42;;;;;;;9.38;4.78;;;;;;;22.77;64.89;99858.16;2949471;80;21020;-56
2021/08/19 07:44:45;;;;;;;5.25;4.20;;;;;;;22.77;64.40;99854.09;2950206;80;20992;-57
2021/08/19 07:48:47;;;;;;;5.70;3.25;;;;;;;22.92;64.56;99853.82;2950556;80;21079;-59
2021/08/19 07:53:15;;;;;;;4.80;3.25;;;;;;;23.23;63.16;99842.64;2950569;80;21007;-57
2021/08/19 07:57:17;;;;;;;4.17;3.75;;;;;;;23.49;62.90;99848.41;2950436;80;21051;-58
2021/08/19 08:01:19;;;;;;;5.25;3.42;;;;;;;23.61;63.15;99847.69;2950914;80;21007;-57
2021/08/19 08:05:24;;;;;;;6.53;3.85;;;;;;;23.67;62.04;99849.50;2950659;80;21007;-57
2021/08/19 08:09:33;;;;;;;4.08;3.60;;;;;;;23.61;61.86;99857.20;2950574;80;20965;-58
2021/08/19 08:13:35;;;;;;;3.45;3.10;;;;;;;23.46;61.32;99865.14;2950374;80;21030;-58
2021/08/19 08:17:39;;;;;;;3.15;2.37;;;;;;;23.27;61.21;99853.92;2950594;80;21016;-58
2021/08/19 08:21:41;;;;;;;5.20;3.55;;;;;;;23.14;61.17;99851.56;2950030;80;21027;-58
2021/08/19 08:25:43;;;;;;;4.50;3.62;;;;;;;23.13;61.65;99864.83;2950867;80;20897;-57
2021/08/19 08:29:45;;;;;;;4.70;3.67;;;;;;;23.22;62.22;99860.81;2950610;80;20998;-58
2021/08/19 08:33:47;;;;;;;4.42;4.03;;;;;;;23.23;61.08;99863.83;2951127;80;21035;-56
2021/08/19 08:37:49;;;;;;;4.15;3.25;;;;;;;23.18;61.67;99869.06;2951277;80;20972;-57
2021/08/19 08:41:57;;;;;;;5.78;4.42;;;;;;;23.48;62.39;99877.11;2951137;80;20996;-57
2021/08/19 08:46:01;;;;;;;4.25;2.85;;;;;;;23.56;60.11;99877.37;2950403;79;20983;-61
2021/08/19 08:50:06;;;;;;;5.85;3.67;;;;;;;23.25;60.36;99876.67;2920929;81;21023;-57
2021/08/19 08:54:09;;;;;;;2.75;2.55;;;;;;;22.92;61.21;99876.33;2921311;81;20932;-56
2021/08/19 08:58:12;;;;;;;3.05;2.45;;;;;;;22.64;61.95;99876.69;2920175;79;21003;-59
2021/08/19 09:02:13;;;;;;;4.95;2.60;;;;;;;22.43;62.88;99879.97;2920446;79;20965;-60
2021/08/19 09:06:58;;;;;;;3.83;3.45;;;;;;;22.34;63.40;99889.40;2920094;80;20999;-58
2021/08/19 09:11:07;;;;;;;7.65;4.15;;;;;;;22.30;63.22;99887.63;2920791;81;21039;-57
2021/08/19 09:15:12;;;;;;;7.03;3.77;;;;;;;22.35;63.62;99887.81;2921100;80;20951;-56
2021/08/19 09:19:18;;;;;;;4.58;3.08;;;;;;;22.39;62.99;99879.55;2920634;80;20954;-59
2021/08/19 09:23:21;;;;;;;5.47;3.67;;;;;;;22.40;63.04;99886.67;2920880;81;21019;-58
2021/08/19 09:27:23;;;;;;;5.92;3.60;;;;;;;22.50;63.13;99882.18;2921117;80;20975;-56
2021/08/19 09:31:24;;;;;;;4.22;3.77;;;;;;;22.47;62.51;99892.07;2920716;80;20948;-57
2021/08/19 09:35:27;;;;;;;4.80;3.08;;;;;;;22.53;62.30;99880.39;2921072;80;20952;-57
2021/08/19 09:40:03;;;;;;;4.47;3.65;;;;;;;22.58;62.40;99887.86;2935477;79;21054;-57
2021/08/19 09:44:06;;;;;;;6.60;3.95;;;;;;;22.66;62.03;99886.27;2920615;81;21649;-57
2021/08/19 09:48:11;;;;;;;4.05;3.17;;;;;;;22.77;62.15;99892.05;2920438;80;21082;-56
2021/08/19 09:52:13;;;;;;;4.50;3.47;;;;;;;22.76;61.41;99891.73;2921034;80;20948;-57
2021/08/19 09:56:34;;;;;;;100.87;16.80;;;;;;;22.76;61.86;99899.88;2920666;81;20964;-57
2021/08/19 10:00:41;;;;;;;3.60;3.08;;;;;;;22.75;61.49;99901.77;2920827;80;21086;-59
2021/08/19 10:04:44;;;;;;;5.55;3.15;;;;;;;22.71;62.25;99901.05;2920580;80;20959;-60
2021/08/19 10:08:46;;;;;;;9.93;3.95;;;;;;;22.70;61.96;99894.81;2920482;81;20991;-56
2021/08/19 10:12:49;;;;;;;5.17;3.72;;;;;;;22.61;61.67;99889.31;2877618;82;21049;-58
2021/08/19 10:16:53;;;;;;;6.40;4.65;;;;;;;22.56;62.23;99895.37;2884870;82;21024;-57
2021/08/19 10:21:33;;;;;;;3.87;3.58;;;;;;;22.59;62.87;99890.88;2884551;82;20973;-57
2021/08/19 10:25:35;;;;;;;3.70;2.30;;;;;;;22.71;62.06;99896.98;2876757;83;20994;-56
2021/08/19 10:30:07;;;;;;;109.10;26.52;;;;;;;22.77;61.16;99899.67;2876588;83;21037;-57
2021/08/19 10:34:14;;;;;;;3.92;3.10;;;;;;;22.73;62.21;99895.73;2876919;81;20998;-57
2021/08/19 10:39:03;;;;;;;4.22;3.45;;;;;;;22.97;62.22;99903.62;2876943;82;21057;-58
2021/08/19 10:43:33;;;;;;;2.70;2.50;;;;;;;23.23;61.71;99903.17;2878521;82;21049;-58
2021/08/19 10:47:38;;;;;;;9.30;3.55;;;;;;;23.31;60.60;99898.03;2876973;82;21014;-56
2021/08/19 10:51:40;;;;;;;8.73;4.15;;;;;;;23.46;61.38;99901.78;2876955;83;21029;-57
2021/08/19 10:56:31;;;;;;;4.42;2.47;;;;;;;23.84;60.78;99896.45;2876841;82;21005;-57
2021/08/19 11:00:39;;;;;;;2.70;2.50;;;;;;;24.02;59.54;99888.38;2877902;82;21022;-57
2021/08/19 11:04:48;;;;;;;3.75;2.50;;;;;;;24.23;58.31;99898.49;2877054;83;21006;-58
2021/08/19 11:08:57;;;;;;;2.95;2.45;;;;;;;24.23;59.16;99897.95;2877085;82;20943;-56
2021/08/19 11:13:18;;;;;;;3.65;2.22;;;;;;;24.05;58.16;99896.06;2927669;80;21011;-57
2021/08/19 11:17:22;;;;;;;3.70;2.67;;;;;;;23.92;59.06;99898.88;2928592;80;21031;-57
2021/08/19 11:21:24;;;;;;;2.37;2.17;;;;;;;23.85;59.59;99898.11;2928772;80;20995;-58
2021/08/19 11:25:48;;;;;;;4.87;2.90;;;;;;;23.80;59.79;99900.98;2928867;80;21017;-59
2021/08/19 11:29:50;;;;;;;3.35;3.05;;;;;;;23.93;60.00;99894.59;2928551;80;21018;-57
2021/08/19 11:34:11;;;;;;;2.62;2.42;;;;;;;23.93;58.56;99900.53;2928656;80;21038;-59
2021/08/19 11:38:20;;;;;;;4.03;2.95;;;;;;;23.75;59.02;99909.48;2928561;80;20972;-58
2021/08/19 11:42:33;;;;;;;2.65;1.82;;;;;;;23.54;59.57;99906.11;2928209;81;20980;-58
2021/08/19 11:46:49;;;;;;;3.30;2.83;;;;;;;23.28;59.90;99916.63;2928750;81;20964;-58
2021/08/19 11:50:54;;;;;;;4.22;2.80;;;;;;;23.18;60.85;99924.67;2928575;80;21027;-57
2021/08/19 11:55:07;;;;;;;4.03;3.08;;;;;;;23.02;61.16;99907.58;2929082;80;20975;-56
2021/08/19 11:59:12;;;;;;;3.50;2.83;;;;;;;22.97;61.20;99932.63;2928855;80;21011;-57
2021/08/19 12:03:20;;;;;;;;;;;;;;;22.89;61.57;99931.00;2930795;80;20999;-56
2021/08/19 12:29:09;;;;;;;2.33;2.12;;;;;;;22.85;62.19;99950.11;2828046;83;21037;-58
2021/08/19 12:33:13;;;;;;;3.77;3.12;;;;;;;22.82;62.43;99938.34;2753173;85;21012;-57
2021/08/19 12:37:19;;;;;;;6.75;3.35;;;;;;;22.91;62.48;99935.68;2753903;85;21021;-59
2021/08/19 12:41:27;;;;;;;62.30;12.88;;;;;;;22.92;62.49;99942.77;2753589;86;21056;-57
2021/08/19 12:46:09;;;;;;;4.10;2.75;;;;;;;23.04;63.01;99952.95;2752731;84;21130;-57
2021/08/19 12:50:18;;;;;;;122.60;18.75;;;;;;;23.08;62.92;99945.49;2753537;86;21068;-57
2021/08/19 12:54:21;;;;;;;6.80;3.77;;;;;;;23.13;63.41;99948.10;2753742;86;21049;-58
2021/08/19 12:58:32;;;;;;;3.33;3.02;;;;;;;23.14;62.82;99950.58;2753574;85;21471;-57
2021/08/19 13:02:35;;;;;;;3.58;3.08;;;;;;;23.13;63.46;99942.67;2754120;86;21083;-63
2021/08/19 13:06:36;;;;;;;3.47;2.72;;;;;;;23.26;63.46;99945.32;2766598;86;21000;-64
2021/08/19 13:10:38;;;;;;;4.55;3.85;;;;;;;23.38;63.00;99946.81;2753760;86;21068;-63
2021/08/19 13:14:40;;;;;;;3.30;2.47;;;;;;;23.43;62.69;99951.08;2753601;85;20977;-62
2021/08/19 13:18:55;;;;;;;6.42;3.27;;;;;;;23.59;62.27;99942.91;2753554;86;21036;-63
2021/08/19 13:22:57;;;;;;;2.70;2.25;;;;;;;23.69;62.01;99943.77;2754188;86;21021;-63
2021/08/19 14:03:18;;;;;;;3.27;2.62;;;;;;;24.15;60.48;99957.19;2866434;80;21101;-57
2021/08/19 14:07:41;;;;;;;3.10;2.80;;;;;;;23.98;61.57;99963.19;2862512;82;21030;-58
2021/08/19 14:11:44;;;;;;;3.67;3.42;;;;;;;23.86;61.45;99954.09;2863648;82;21038;-57
2021/08/19 14:15:46;;;;;;;2.83;2.52;;;;;;;23.63;62.02;99967.75;2867742;83;21025;-58
2021/08/19 14:19:48;;;;;;;3.02;2.72;;;;;;;23.45;62.52;99967.12;2834807;82;20998;-59
2021/08/19 14:23:50;;;;;;;4.20;2.95;;;;;;;23.34;63.09;99960.00;2867211;83;21023;-57
2021/08/19 14:27:52;;;;;;;5.10;3.10;;;;;;;23.27;62.87;99960.55;2867019;83;20978;-59
2021/08/19 14:31:54;;;;;;;4.28;2.27;;;;;;;23.18;63.46;99961.30;2862726;80;20986;-58
2021/08/19 14:35:56;;;;;;;3.02;2.65;;;;;;;23.02;63.62;99968.06;2863452;82;21002;-57
2021/08/19 14:40:01;;;;;;;4.90;2.50;;;;;;;22.84;63.96;99972.85;2867508;80;20987;-58
2021/08/19 14:44:04;;;;;;;3.75;2.60;;;;;;;22.63;64.87;99971.24;2862998;83;20955;-57
2021/08/19 14:48:20;;;;;;;5.58;2.70;;;;;;;22.52;65.50;99965.96;2862139;80;20978;-57
2021/08/19 14:52:22;;;;;;;7.58;4.03;;;;;;;22.50;65.88;99964.84;2862099;80;20970;-59
2021/08/19 14:56:24;;;;;;;3.75;3.35;;;;;;;22.58;66.28;99958.33;2862811;83;21203;-57
2021/08/19 15:00:26;;;;;;;3.17;2.87;;;;;;;22.71;65.66;99953.41;2867812;80;21015;-57
2021/08/19 15:04:30;;;;;;;5.33;3.30;;;;;;;22.93;65.57;99957.98;2863012;82;21034;-57
2021/08/19 15:08:45;;;;;;;15.70;3.95;;;;;;;23.37;64.76;99950.57;2863104;82;28116;-58
2021/08/19 15:12:47;;;;;;;5.92;3.12;;;;;;;23.85;63.23;99954.60;2861939;82;20998;-57
2021/08/19 15:16:49;;;;;;;5.28;2.47;;;;;;;24.04;62.09;99959.59;2862784;82;21014;-58
2021/08/19 15:20:52;;;;;;;5.92;3.58;;;;;;;24.02;61.61;99946.77;2863145;82;20939;-59
2021/08/19 15:24:55;;;;;;;4.80;2.45;;;;;;;23.86;62.23;99970.38;2862496;80;21029;-57
2021/08/19 15:28:59;;;;;;;26.87;5.92;;;;;;;23.70;62.68;99956.30;2867073;80;20978;-59
2021/08/19 15:33:02;;;;;;;28.60;5.15;;;;;;;23.56;63.35;99962.87;2863084;83;20999;-57
2021/08/19 15:37:07;;;;;;;5.67;3.10;;;;;;;23.44;63.74;99964.95;2863300;82;21014;-56
2021/08/19 15:41:12;;;;;;;6.42;2.98;;;;;;;23.26;64.16;99973.81;2858816;82;20962;-58
2021/08/19 15:45:15;;;;;;;2.75;2.52;;;;;;;23.15;64.56;99975.30;2867896;80;21045;-58
2021/08/19 15:49:28;;;;;;;4.17;3.67;;;;;;;22.96;64.50;99983.31;2862728;83;21002;-56
2021/08/19 15:53:36;;;;;;;9.20;3.45;;;;;;;22.78;64.80;99988.59;2863312;82;20978;-57
2021/08/19 15:57:39;;;;;;;4.70;4.20;;;;;;;22.60;67.16;100007.77;2867707;80;21528;-56
2021/08/19 16:01:41;;;;;;;8.23;3.75;;;;;;;22.07;71.15;100026.20;2865620;82;20967;-57
2021/08/19 16:05:43;;;;;;;4.40;3.83;;;;;;;21.55;75.10;100021.35;2862932;83;21077;-59
2021/08/19 16:09:47;;;;;;;5.58;3.75;;;;;;;21.05;79.00;100031.07;2862934;80;20967;-57
2021/08/19 16:13:49;;;;;;;8.35;3.90;;;;;;;20.73;80.72;100027.95;2862860;82;21030;-58
2021/08/19 16:17:51;;;;;;;7.12;5.30;;;;;;;20.63;80.76;100029.14;2862921;83;21029;-58
2021/08/19 16:21:54;;;;;;;7.03;3.98;;;;;;;20.71;80.56;100027.33;2862459;80;21026;-57
2021/08/19 16:25:57;;;;;;;11.85;4.08;;;;;;;20.76;80.95;100035.16;2862852;83;20954;-58
2021/08/19 16:29:59;;;;;;;6.55;4.30;;;;;;;20.74;81.32;100037.73;2862775;83;20939;-57
2021/08/19 16:34:08;;;;;;;6.28;4.42;;;;;;;20.75;81.33;100036.70;2862760;82;20979;-57
2021/08/19 16:38:11;;;;;;;6.17;4.62;;;;;;;20.79;81.25;100035.26;2862635;83;21081;-58
2021/08/19 16:42:13;;;;;;;6.45;4.20;;;;;;;20.89;80.94;100046.59;2862547;83;21022;-59
2021/08/19 16:46:19;;;;;;;15.60;5.03;;;;;;;20.90;80.89;100040.14;2862801;83;21043;-57
2021/08/19 16:50:21;;;;;;;7.65;4.45;;;;;;;20.94;80.95;100044.11;2862596;83;21461;-57
2021/08/19 16:54:23;;;;;;;6.50;4.67;;;;;;;20.96;81.28;100037.98;2863003;80;21280;-57
2021/08/19 16:58:35;;;;;;;11.70;4.17;;;;;;;20.91;80.30;100033.70;2863298;80;21054;-57
2021/08/19 17:02:37;;;;;;;8.40;4.92;;;;;;;20.81;80.69;100044.03;2865670;81;20991;-59
2021/08/19 17:06:40;;;;;;;13.50;4.30;;;;;;;20.76;81.01;100039.22;2867769;83;21264;-57
2021/08/19 17:11:14;;;;;;;5.30;4.08;;;;;;;20.79;81.11;100043.37;2867910;80;20979;-59
2021/08/19 17:15:18;;;;;;;8.07;4.80;;;;;;;20.79;81.22;100042.02;2867006;80;20957;-58
2021/08/19 17:19:21;;;;;;;14.10;5.12;;;;;;;20.77;80.93;100042.23;2867300;80;21037;-59
2021/08/19 17:23:27;;;;;;;6.42;3.67;;;;;;;20.80;81.22;100041.02;2867479;80;20998;-58
2021/08/19 17:27:30;;;;;;;5.45;3.77;;;;;;;20.89;81.10;100038.48;2867904;83;20966;-58
2021/08/19 17:31:32;;;;;;;9.18;5.40;;;;;;;20.94;81.15;100040.05;2867014;83;21022;-60
2021/08/19 17:35:36;;;;;;;8.40;5.00;;;;;;;21.01;80.82;100041.95;2867192;83;20991;-58
2021/08/19 17:39:39;;;;;;;12.10;6.43;;;;;;;21.08;80.54;100045.53;2867963;83;20978;-58
2021/08/19 17:43:41;;;;;;;21.50;7.45;;;;;;;21.12;79.73;100032.73;2867477;83;20971;-59
2021/08/19 17:47:43;;;;;;;13.03;5.55;;;;;;;21.13;80.29;100028.18;2875789;77;21169;-60
2021/08/19 17:56:29;;;;;;;9.53;5.10;;;;;;;21.22;80.46;100031.55;2870035;82;20980;-60
2021/08/19 18:00:39;;;;;;;9.25;5.10;;;;;;;21.31;80.07;100021.38;2880546;82;21030;-68
2021/08/19 18:04:41;;;;;;;16.02;5.50;;;;;;;21.31;79.80;100020.03;2893934;82;20987;-62
2021/08/19 18:09:07;;;;;;;5.70;5.03;;;;;;;21.31;80.09;100032.20;2893706;82;20971;-62
2021/08/19 18:13:09;;;;;;;14.13;5.58;;;;;;;21.34;80.21;100030.44;2886792;81;21003;-62
2021/08/19 18:17:30;;;;;;;13.22;5.87;;;;;;;21.30;79.96;100033.23;2844453;83;20986;-62
2021/08/19 18:21:33;;;;;;;9.53;4.78;;;;;;;21.27;80.05;100042.58;2844700;83;21026;-70
2021/08/19 18:25:43;;;;;;;10.63;4.92;;;;;;;21.34;79.93;100039.91;2845597;82;21086;-62
2021/08/19 18:29:46;;;;;;;7.17;4.92;;;;;;;21.37;80.08;100040.34;2888754;82;20998;-64
2021/08/19 18:33:47;;;;;;;4.87;4.17;;;;;;;21.39;79.73;100045.53;2889440;82;21050;-62
2021/08/19 18:37:53;;;;;;;23.02;6.53;;;;;;;21.40;79.72;100058.88;2893718;82;21003;-62
2021/08/19 18:41:55;;;;;;;7.00;3.95;;;;;;;21.39;78.99;100059.06;2894009;82;20979;-64
2021/08/19 18:46:15;;;;;;;3.35;2.37;;;;;;;21.38;78.47;100060.09;2883043;82;21054;-68
2021/08/19 18:50:18;;;;;;;3.17;2.40;;;;;;;21.38;77.59;100065.51;2838175;83;21007;-61
2021/08/19 18:54:58;;;;;;;6.12;2.35;;;;;;;21.37;77.35;100074.66;2904265;82;21014;-61
2021/08/19 18:59:00;;;;;;;2.20;1.92;;;;;;;21.40;77.13;100070.20;2907359;82;21014;-64
2021/08/19 19:03:08;;;;;;;5.70;2.87;;;;;;;21.38;76.75;100067.71;2906738;82;20991;-62
2021/08/19 19:07:11;;;;;;;3.00;2.60;;;;;;;21.35;76.23;100068.13;2861531;82;20960;-63
2021/08/19 19:11:14;;;;;;;3.50;2.08;;;;;;;21.34;76.23;100077.78;2857690;83;20979;-71
2021/08/19 19:15:19;;;;;;;2.17;1.60;;;;;;;21.33;76.45;100076.11;2882733;82;21021;-63
2021/08/19 19:24:53;;;;;;;3.22;2.47;;;;;;;21.32;76.16;100071.73;2883261;82;21066;-62
2021/08/19 19:28:57;;;;;;;2.42;2.22;;;;;;;21.27;76.42;100073.69;2878477;82;21048;-62
2021/08/19 19:33:07;;;;;;;4.50;1.67;;;;;;;21.28;76.40;100071.83;2878010;82;20923;-62
2021/08/19 19:37:09;;;;;;;2.50;1.92;;;;;;;21.28;76.43;100082.12;2904970;82;20967;-62
2021/08/19 19:41:30;;;;;;;2.55;2.25;;;;;;;21.25;76.21;100073.91;2876468;82;20947;-63
2021/08/19 19:45:32;;;;;;;2.58;2.33;;;;;;;21.21;76.47;100079.38;2906789;81;21021;-68
2021/08/19 19:49:36;;;;;;;2.47;2.27;;;;;;;21.21;76.68;100079.91;2854147;82;21000;-67
2021/08/19 19:53:45;;;;;;;15.50;3.98;;;;;;;21.24;76.51;100076.30;2844386;82;20961;-69
2021/08/19 19:57:48;;;;;;;2.67;2.12;;;;;;;21.20;76.35;100075.01;2878553;82;21042;-63
2021/08/19 20:01:49;;;;;;;5.30;2.52;;;;;;;21.17;76.45;100075.41;2871817;81;20987;-64
2021/08/19 20:05:59;;;;;;;5.92;2.20;;;;;;;21.10;76.61;100075.38;2881552;82;21809;-66
2021/08/19 20:10:01;;;;;;;3.77;2.58;;;;;;;21.07;76.73;100073.61;2891255;82;21050;-63
2021/08/19 20:14:13;;;;;;;3.52;3.00;;;;;;;21.06;76.76;100073.30;2891179;82;20927;-64
2021/08/19 20:18:15;;;;;;;2.85;2.02;;;;;;;21.00;77.00;100078.13;2869734;82;21487;-64
2021/08/19 20:22:22;;;;;;;6.10;2.65;;;;;;;20.97;77.12;100074.80;2879630;82;21034;-65
2021/08/19 20:26:26;;;;;;;3.58;2.67;;;;;;;20.94;77.14;100081.96;2868439;82;21006;-68
2021/08/19 20:31:14;;;;;;;8.80;4.25;;;;;;;20.95;77.64;100084.98;2845358;82;21061;-63
2021/08/19 20:35:18;;;;;;;30.90;8.15;;;;;;;20.98;77.58;100079.70;2882375;82;21036;-69